createdAt,value
2018-08-27T00:00:52.715Z,224.80
2018-08-27T00:01:52.721Z,157.90
2018-08-27T00:02:53.089Z,343.00
2018-08-27T00:03:53.031Z,157.40
2018-08-27T00:04:52.879Z,174.60
2018-08-27T00:05:52.901Z,151.00
2018-08-27T00:06:52.920Z,177.00
2018-08-27T00:07:52.977Z,219.80
2018-08-27T00:08:53.262Z,173.60
2018-08-27T00:09:53.075Z,149.50
2018-08-27T00:10:53.075Z,130.80
2018-08-27T00:11:53.113Z,197.80
2018-08-27T00:12:53.170Z,138.50
2018-08-27T00:13:53.212Z,139.10
2018-08-27T00:14:53.505Z,158.60
2018-08-27T00:15:53.305Z,155.50
2018-08-27T00:16:53.343Z,135.20
2018-08-27T00:17:53.384Z,142.50
2018-08-27T00:18:53.419Z,133.20
2018-08-27T00:20:27.013Z,132.30
2018-08-27T00:20:53.510Z,117.40
2018-08-27T00:21:53.526Z,151.50
2018-08-27T00:22:53.547Z,163.00
2018-08-27T00:23:53.587Z,134.50
2018-08-27T00:24:53.696Z,131.80
2018-08-27T00:27:39.755Z,135.20
2018-08-27T00:29:13.018Z,142.50
2018-08-27T00:31:23.601Z,143.00
2018-08-27T00:32:57.119Z,140.80
2018-08-27T00:35:07.453Z,131.90
2018-08-27T00:36:40.720Z,135.80
2018-08-27T00:38:51.554Z,143.80
2018-08-27T00:40:24.570Z,140.70
2018-08-27T00:42:35.154Z,153.60
2018-08-27T00:44:08.421Z,132.40
2018-08-27T00:46:19.256Z,132.30
2018-08-27T00:47:52.274Z,142.30
2018-08-27T00:50:02.856Z,190.80
2018-08-27T00:51:36.428Z,166.60
2018-08-27T00:53:46.960Z,228.30
2018-08-27T00:55:20.225Z,178.40
2018-08-27T00:57:30.809Z,141.20
2018-08-27T00:59:04.377Z,163.90
2018-08-27T01:01:14.662Z,123.10
2018-08-27T01:02:47.925Z,135.70
2018-08-27T01:04:58.509Z,150.70
2018-08-27T01:06:31.776Z,136.10
2018-08-27T01:08:42.362Z,137.90
2018-08-27T01:10:15.928Z,132.20
2018-08-27T01:11:34.864Z,123.70
2018-08-27T01:11:42.506Z,141.10
2018-08-27T01:12:42.545Z,144.50
2018-08-27T01:13:42.564Z,151.40
2018-08-27T01:14:42.591Z,149.20
2018-08-27T01:15:42.700Z,158.70
2018-08-27T01:16:43.296Z,165.50
2018-08-27T01:17:42.729Z,141.50
2018-08-27T01:18:42.776Z,143.30
2018-08-27T01:21:26.568Z,142.50
2018-08-27T01:22:59.840Z,144.30
2018-08-27T01:25:10.421Z,150.10
2018-08-27T01:26:43.688Z,132.80
2018-08-27T01:28:54.522Z,144.70
2018-08-27T01:30:27.790Z,143.30
2018-08-27T01:32:38.373Z,145.90
2018-08-27T01:33:38.727Z,150.10
2018-08-27T01:34:38.469Z,151.80
2018-08-27T01:35:38.490Z,199.80
2018-08-27T01:36:38.540Z,230.50
2018-08-27T01:37:38.597Z,160.90
2018-08-27T01:38:38.633Z,155.60
2018-08-27T01:39:38.652Z,160.40
2018-08-27T01:40:38.684Z,157.80
2018-08-27T01:41:38.790Z,174.20
2018-08-27T01:42:38.784Z,223.70
2018-08-27T01:43:38.820Z,166.20
2018-08-27T01:44:39.172Z,179.70
2018-08-27T01:47:22.658Z,153.00
2018-08-27T01:48:55.924Z,158.40
2018-08-27T01:51:06.809Z,168.70
2018-08-27T01:52:39.776Z,164.40
2018-08-27T01:54:50.361Z,162.00
2018-08-27T01:56:23.626Z,157.40
2018-08-27T01:58:34.461Z,183.00
2018-08-27T02:00:07.727Z,181.40
2018-08-27T02:02:18.511Z,159.10
2018-08-27T02:03:52.030Z,148.40
2018-08-27T02:06:02.313Z,151.20
2018-08-27T02:07:35.630Z,161.30
2018-08-27T02:09:46.714Z,162.20
2018-08-27T02:11:19.633Z,163.20
2018-08-27T02:13:30.316Z,182.00
2018-08-27T02:15:03.681Z,161.70
2018-08-27T02:17:14.216Z,154.80
2018-08-27T02:18:47.432Z,157.70
2018-08-27T02:20:58.576Z,155.80
2018-08-27T02:22:31.433Z,157.10
2018-08-27T02:24:42.116Z,158.30
2018-08-27T02:26:15.535Z,152.90
2018-08-27T02:28:26.368Z,143.20
2018-08-27T02:29:59.685Z,157.40
2018-08-27T02:32:10.318Z,172.90
2018-08-27T02:33:10.671Z,169.30
2018-08-27T02:34:10.314Z,152.60
2018-08-27T02:35:10.413Z,165.20
2018-08-27T02:36:10.384Z,156.90
2018-08-27T02:37:10.442Z,156.20
2018-08-27T02:38:10.576Z,152.20
2018-08-27T02:39:10.905Z,152.10
2018-08-27T02:40:10.531Z,160.70
2018-08-27T02:41:10.637Z,160.10
2018-08-27T02:42:10.629Z,158.50
2018-08-27T02:43:10.665Z,164.50
2018-08-27T02:44:10.666Z,160.80
2018-08-27T02:46:54.752Z,158.30
2018-08-27T02:48:28.020Z,150.90
2018-08-27T02:50:38.606Z,157.80
2018-08-27T02:52:11.871Z,150.50
2018-08-27T02:54:22.457Z,121.90
2018-08-27T02:55:55.720Z,78.20
2018-08-27T02:58:06.555Z,70.90
2018-08-27T02:59:39.821Z,69.20
2018-08-27T03:01:50.405Z,68.40
2018-08-27T03:03:23.672Z,73.40
2018-08-27T03:05:34.506Z,84.40
2018-08-27T03:07:07.773Z,91.00
2018-08-27T03:09:18.358Z,76.50
2018-08-27T03:10:51.623Z,76.70
2018-08-27T03:13:02.206Z,65.10
2018-08-27T03:14:35.723Z,63.20
2018-08-27T03:16:46.056Z,61.30
2018-08-27T03:18:19.344Z,61.50
2018-08-27T03:20:29.911Z,64.30
2018-08-27T03:22:03.172Z,63.60
2018-08-27T03:24:13.756Z,65.30
2018-08-27T03:25:47.272Z,65.30
2018-08-27T03:27:57.607Z,65.30
2018-08-27T03:29:30.874Z,94.00
2018-08-27T03:31:41.458Z,70.10
2018-08-27T03:33:14.975Z,70.60
2018-08-27T03:35:25.308Z,74.40
2018-08-27T03:36:58.574Z,69.10
2018-08-27T03:39:09.408Z,67.70
2018-08-27T03:40:42.489Z,69.40
2018-08-27T03:42:53.008Z,88.20
2018-08-27T03:44:26.278Z,70.60
2018-08-27T03:46:37.159Z,104.80
2018-08-27T03:48:10.426Z,73.00
2018-08-27T03:50:21.009Z,210.00
2018-08-27T03:51:54.275Z,74.60
2018-08-27T03:54:04.863Z,88.60
2018-08-27T03:55:38.376Z,362.10
2018-08-27T03:57:48.708Z,80.50
2018-08-27T03:59:21.975Z,80.10
2018-08-27T04:01:32.559Z,75.20
2018-08-27T04:03:05.825Z,73.00
2018-08-27T04:05:16.516Z,102.40
2018-08-27T04:06:49.925Z,145.20
2018-08-27T04:09:00.257Z,69.90
2018-08-27T04:10:33.526Z,69.70
2018-08-27T04:12:44.107Z,74.00
2018-08-27T04:14:17.677Z,77.00
2018-08-27T04:16:27.956Z,71.50
2018-08-27T04:18:01.224Z,75.00
2018-08-27T04:20:11.807Z,71.90
2018-08-27T04:21:45.072Z,68.50
2018-08-27T04:23:55.656Z,68.50
2018-08-27T04:25:29.173Z,68.00
2018-08-27T04:27:39.506Z,73.10
2018-08-27T04:29:12.773Z,73.30
2018-08-27T04:31:23.659Z,74.20
2018-08-27T04:32:56.624Z,73.00
2018-08-27T04:35:07.209Z,77.90
2018-08-27T04:36:40.775Z,71.60
2018-08-27T04:38:51.058Z,68.50
2018-08-27T04:40:24.326Z,75.30
2018-08-27T04:42:35.297Z,95.10
2018-08-27T04:44:08.177Z,90.50
2018-08-27T04:46:18.760Z,77.10
2018-08-27T04:47:52.053Z,78.00
2018-08-27T04:50:02.913Z,69.70
2018-08-27T04:51:36.178Z,82.50
2018-08-27T04:53:46.762Z,75.30
2018-08-27T04:55:20.028Z,74.00
2018-08-27T04:57:30.913Z,77.50
2018-08-27T04:59:04.180Z,182.90
2018-08-27T05:01:14.765Z,76.40
2018-08-27T05:02:48.028Z,157.10
2018-08-27T05:04:58.612Z,74.50
2018-08-27T05:06:32.129Z,73.30
2018-08-27T05:08:42.469Z,99.70
2018-08-27T05:10:15.731Z,80.50
2018-08-27T05:12:26.314Z,73.80
2018-08-27T05:13:59.579Z,75.60
2018-08-27T05:16:10.212Z,70.70
2018-08-27T05:17:43.737Z,74.00
2018-08-27T05:19:54.013Z,75.30
2018-08-27T05:21:27.279Z,74.00
2018-08-27T05:23:37.963Z,130.90
2018-08-27T05:25:11.130Z,90.00
2018-08-27T05:27:21.713Z,74.30
2018-08-27T05:28:55.232Z,79.20
2018-08-27T05:31:05.654Z,69.60
2018-08-27T05:32:38.830Z,75.10
2018-08-27T05:34:49.715Z,83.40
2018-08-27T05:36:22.681Z,106.80
2018-08-27T05:38:33.348Z,239.80
2018-08-27T05:40:06.531Z,76.80
2018-08-27T05:42:17.113Z,73.70
2018-08-27T05:43:50.380Z,67.80
2018-08-27T05:46:01.265Z,87.10
2018-08-27T05:47:34.266Z,78.20
2018-08-27T05:49:44.816Z,67.20
2018-08-27T05:51:18.385Z,65.60
2018-08-27T05:53:28.664Z,64.80
2018-08-27T05:55:01.932Z,65.00
2018-08-27T05:57:12.515Z,138.60
2018-08-27T05:58:45.783Z,81.80
2018-08-27T06:00:56.365Z,71.70
2018-08-27T06:02:29.933Z,73.40
2018-08-27T06:04:40.216Z,79.10
2018-08-27T06:06:13.483Z,121.50
2018-08-27T06:08:24.066Z,67.50
2018-08-27T06:09:57.583Z,79.70
2018-08-27T06:12:07.916Z,75.60
2018-08-27T06:13:41.182Z,71.30
2018-08-27T06:15:52.017Z,76.40
2018-08-27T06:17:25.032Z,76.10
2018-08-27T06:19:35.616Z,66.30
2018-08-27T06:21:08.886Z,66.10
2018-08-27T06:23:19.768Z,78.20
2018-08-27T06:24:53.063Z,71.40
2018-08-27T06:27:03.918Z,100.20
2018-08-27T06:28:36.884Z,121.30
2018-08-27T06:30:47.468Z,70.30
2018-08-27T06:32:20.784Z,74.30
2018-08-27T06:34:31.619Z,86.50
2018-08-27T06:36:04.887Z,84.10
2018-08-27T06:38:15.471Z,78.70
2018-08-27T06:39:48.736Z,73.20
2018-08-27T06:42:00.822Z,71.80
2018-08-27T06:43:34.088Z,78.30
2018-08-27T06:45:44.672Z,73.90
2018-08-27T06:47:18.189Z,70.60
2018-08-27T06:49:28.530Z,79.20
2018-08-27T06:51:01.788Z,71.30
2018-08-27T06:53:12.672Z,76.70
2018-08-27T06:54:45.939Z,74.90
2018-08-27T06:56:56.521Z,77.50
2018-08-27T06:58:30.088Z,91.90
2018-08-27T07:00:40.373Z,120.70
2018-08-27T07:02:13.656Z,95.30
2018-08-27T07:04:24.220Z,108.90
2018-08-27T07:05:57.486Z,163.40
2018-08-27T07:08:08.068Z,66.80
2018-08-27T07:09:41.635Z,69.40
2018-08-27T07:11:52.374Z,66.20
2018-08-27T07:13:25.484Z,73.80
2018-08-27T07:15:36.067Z,68.60
2018-08-27T07:17:09.585Z,67.80
2018-08-27T07:19:19.918Z,66.70
2018-08-27T07:20:53.183Z,73.70
2018-08-27T07:23:04.070Z,80.50
2018-08-27T07:24:37.335Z,71.40
2018-08-27T07:26:47.918Z,66.20
2018-08-27T07:28:21.185Z,66.70
2018-08-27T07:30:31.769Z,68.50
2018-08-27T07:32:05.035Z,68.30
2018-08-27T07:34:15.870Z,68.20
2018-08-27T07:35:49.136Z,67.10
2018-08-27T07:37:59.724Z,64.50
2018-08-27T07:39:33.238Z,64.40
2018-08-27T07:41:43.571Z,67.00
2018-08-27T07:43:16.839Z,69.10
2018-08-27T07:45:27.422Z,90.10
2018-08-27T07:47:00.688Z,65.10
2018-08-27T07:49:11.272Z,62.80
2018-08-27T07:50:44.919Z,65.50
2018-08-27T07:52:55.121Z,68.60
2018-08-27T07:54:28.387Z,70.70
2018-08-27T07:56:38.977Z,70.90
2018-08-27T07:58:12.490Z,112.70
2018-08-27T08:00:22.823Z,77.30
2018-08-27T08:01:56.088Z,74.40
2018-08-27T08:04:06.672Z,74.00
2018-08-27T08:05:39.939Z,78.00
2018-08-27T08:07:50.522Z,73.80
2018-08-27T08:09:24.090Z,81.70
2018-08-27T08:11:34.372Z,75.50
2018-08-27T08:13:07.638Z,69.20
2018-08-27T08:15:18.472Z,72.70
2018-08-27T08:16:51.738Z,73.60
2018-08-27T08:19:02.373Z,76.60
2018-08-27T08:20:35.889Z,73.20
2018-08-27T08:22:46.230Z,74.60
2018-08-27T08:24:19.439Z,76.00
2018-08-27T08:26:30.024Z,73.20
2018-08-27T08:28:03.290Z,70.10
2018-08-27T08:30:13.874Z,71.40
2018-08-27T08:31:47.440Z,72.20
2018-08-27T08:33:57.725Z,72.10
2018-08-27T08:35:30.992Z,72.50
2018-08-27T08:37:41.576Z,95.20
2018-08-27T08:39:15.093Z,80.10
2018-08-27T08:41:25.427Z,79.00
2018-08-27T08:42:58.694Z,72.20
2018-08-27T08:45:09.277Z,78.50
2018-08-27T08:46:42.545Z,70.30
2018-08-27T08:48:53.129Z,94.50
2018-08-27T08:50:26.695Z,74.90
2018-08-27T08:52:36.978Z,72.40
2018-08-27T08:54:10.244Z,223.10
2018-08-27T08:56:21.128Z,73.00
2018-08-27T08:57:54.399Z,71.50
2018-08-27T09:00:04.978Z,195.10
2018-08-27T09:01:38.262Z,81.40
2018-08-27T09:03:48.827Z,72.70
2018-08-27T09:05:22.094Z,71.30
2018-08-27T09:07:32.928Z,79.50
2018-08-27T09:09:06.017Z,72.10
2018-08-27T09:11:16.528Z,73.70
2018-08-27T09:12:49.794Z,75.10
2018-08-27T09:15:00.378Z,76.80
2018-08-27T09:16:33.648Z,72.70
2018-08-27T09:18:44.480Z,73.20
2018-08-27T09:19:44.284Z,73.30
2018-08-27T09:20:44.324Z,182.10
2018-08-27T09:21:44.346Z,77.00
2018-08-27T09:22:44.395Z,74.50
2018-08-27T09:23:44.522Z,71.80
2018-08-27T09:24:44.752Z,72.50
2018-08-27T09:25:44.507Z,77.10
2018-08-27T09:26:44.540Z,75.10
2018-08-27T09:27:44.646Z,73.40
2018-08-27T09:28:44.639Z,73.40
2018-08-27T09:29:44.675Z,73.80
2018-08-27T09:30:44.722Z,75.00
2018-08-27T09:31:44.749Z,82.90
2018-08-27T09:33:18.174Z,79.90
2018-08-27T09:33:44.840Z,77.10
2018-08-27T09:34:44.868Z,73.90
2018-08-27T09:35:45.244Z,74.10
2018-08-27T09:36:44.952Z,75.90
2018-08-27T09:37:44.990Z,75.80
2018-08-27T09:40:28.791Z,77.60
2018-08-27T09:41:28.878Z,82.50
2018-08-27T09:42:28.881Z,75.40
2018-08-27T09:45:12.678Z,77.90
2018-08-27T09:46:12.725Z,77.70
2018-08-27T09:47:13.023Z,81.60
2018-08-27T09:49:56.570Z,72.70
2018-08-27T09:50:56.618Z,75.10
2018-08-27T09:51:56.662Z,78.40
2018-08-27T09:54:40.711Z,80.00
2018-08-27T09:55:40.757Z,107.80
2018-08-27T09:56:40.808Z,84.80
2018-08-27T09:59:24.600Z,78.40
2018-08-27T10:00:24.948Z,81.20
2018-08-27T10:01:24.695Z,83.60
2018-08-27T10:04:08.491Z,92.00
2018-08-27T10:05:08.539Z,91.60
2018-08-27T10:06:08.586Z,97.30
2018-08-27T10:08:52.386Z,99.00
2018-08-27T10:09:52.431Z,101.10
2018-08-27T10:10:52.477Z,92.10
2018-08-27T10:13:36.279Z,105.70
2018-08-27T10:14:36.322Z,97.20
2018-08-27T10:15:36.371Z,102.30
2018-08-27T10:18:20.468Z,87.30
2018-08-27T10:19:20.214Z,97.40
2018-08-27T10:20:20.261Z,94.00
2018-08-27T10:23:04.058Z,95.40
2018-08-27T10:24:04.109Z,89.50
2018-08-27T10:25:04.453Z,97.70
2018-08-27T10:27:47.951Z,88.30
2018-08-27T10:28:48.004Z,87.60
2018-08-27T10:29:48.063Z,87.30
2018-08-27T10:30:48.067Z,94.10
2018-08-27T10:31:48.367Z,88.60
2018-08-27T10:32:48.180Z,88.60
2018-08-27T10:33:48.211Z,91.00
2018-08-27T10:34:48.231Z,88.30
2018-08-27T10:35:48.264Z,88.70
2018-08-27T10:36:48.371Z,83.70
2018-08-27T10:37:48.364Z,81.40
2018-08-27T10:38:48.404Z,77.90
2018-08-27T10:39:48.450Z,85.80
2018-08-27T10:40:48.476Z,94.20
2018-08-27T10:41:48.501Z,92.70
2018-08-27T10:42:48.579Z,111.70
2018-08-27T10:43:48.611Z,93.80
2018-08-27T10:44:48.636Z,98.00
2018-08-27T10:45:48.721Z,99.40
2018-08-27T10:46:48.729Z,107.00
2018-08-27T10:47:48.765Z,109.60
2018-08-27T10:48:48.799Z,96.10
2018-08-27T10:49:48.857Z,109.40
2018-08-27T10:50:48.877Z,99.10
2018-08-27T10:51:48.967Z,92.90
2018-08-27T10:52:48.967Z,103.20
2018-08-27T10:53:49.018Z,98.30
2018-08-27T10:54:49.027Z,102.60
2018-08-27T10:55:49.111Z,140.50
2018-08-27T10:56:49.106Z,112.80
2018-08-27T10:57:49.159Z,112.50
2018-08-27T10:58:49.208Z,161.50
2018-08-27T10:59:49.291Z,171.20
2018-08-27T11:00:49.288Z,121.40
2018-08-27T11:01:49.335Z,147.00
2018-08-27T11:02:49.389Z,158.80
2018-08-27T11:03:49.407Z,120.30
2018-08-27T11:04:49.421Z,124.20
2018-08-27T11:05:49.465Z,115.30
2018-08-27T11:06:49.522Z,115.80
2018-08-27T11:07:49.572Z,142.40
2018-08-27T11:08:49.636Z,128.30
2018-08-27T11:09:49.661Z,130.00
2018-08-27T11:10:49.797Z,141.00
2018-08-27T11:11:49.733Z,162.40
2018-08-27T11:12:49.779Z,164.60
2018-08-27T11:13:49.807Z,158.00
2018-08-27T11:14:49.862Z,166.00
2018-08-27T11:15:50.208Z,177.30
2018-08-27T11:16:49.920Z,178.10
2018-08-27T11:17:49.987Z,178.90
2018-08-27T11:18:49.991Z,185.60
2018-08-27T11:19:50.121Z,208.20
2018-08-27T11:20:50.093Z,189.30
2018-08-27T11:21:50.479Z,236.20
2018-08-27T11:22:50.160Z,171.00
2018-08-27T11:23:50.266Z,180.10
2018-08-27T11:24:50.283Z,181.10
2018-08-27T11:25:50.296Z,189.70
2018-08-27T11:26:50.331Z,185.60
2018-08-27T11:27:50.672Z,169.80
2018-08-27T11:28:50.436Z,195.90
2018-08-27T11:29:50.504Z,196.40
2018-08-27T11:30:50.524Z,193.30
2018-08-27T11:31:50.530Z,157.00
2018-08-27T11:32:50.666Z,209.60
2018-08-27T11:33:50.639Z,165.00
2018-08-27T11:34:50.704Z,159.60
2018-08-27T11:35:50.705Z,148.50
2018-08-27T11:36:50.770Z,156.30
2018-08-27T11:37:50.807Z,151.10
2018-08-27T11:38:50.824Z,145.60
2018-08-27T11:39:50.914Z,152.00
2018-08-27T11:40:50.936Z,120.80
2018-08-27T11:41:50.948Z,134.00
2018-08-27T11:42:50.998Z,130.70
2018-08-27T11:43:51.083Z,132.30
2018-08-27T11:44:51.073Z,112.70
2018-08-27T11:45:51.393Z,103.10
2018-08-27T11:46:51.177Z,99.70
2018-08-27T11:47:51.228Z,104.00
2018-08-27T11:48:51.233Z,96.80
2018-08-27T11:49:51.313Z,95.10
2018-08-27T11:50:51.437Z,100.50
2018-08-27T11:51:51.385Z,86.80
2018-08-27T11:52:51.398Z,73.00
2018-08-27T11:53:51.497Z,71.70
2018-08-27T11:54:51.572Z,73.80
2018-08-27T11:56:24.748Z,60.70
2018-08-27T11:56:51.610Z,61.10
2018-08-27T11:57:51.630Z,68.00
2018-08-27T11:58:51.690Z,58.90
2018-08-27T11:59:51.704Z,56.20
2018-08-27T12:00:51.745Z,56.00
2018-08-27T12:01:51.846Z,53.00
2018-08-27T12:02:51.852Z,59.60
2018-08-27T12:05:35.654Z,48.20
2018-08-27T12:06:35.709Z,45.40
2018-08-27T12:08:08.950Z,45.30
2018-08-27T12:08:35.790Z,48.20
2018-08-27T12:09:35.852Z,40.00
2018-08-27T12:10:35.899Z,39.60
2018-08-27T12:11:35.911Z,55.70
2018-08-27T12:13:09.627Z,38.70
2018-08-27T12:14:09.221Z,37.60
2018-08-27T12:14:36.060Z,35.70
2018-08-27T12:15:36.087Z,36.80
2018-08-27T12:16:36.122Z,32.90
2018-08-27T12:18:09.398Z,33.70
2018-08-27T12:20:19.982Z,36.20
2018-08-27T12:21:20.039Z,40.20
2018-08-27T12:22:53.278Z,46.60
2018-08-27T12:23:20.121Z,62.50
2018-08-27T12:24:20.187Z,78.80
2018-08-27T12:25:20.225Z,66.10
2018-08-27T12:26:20.246Z,93.30
2018-08-27T12:27:53.564Z,110.30
2018-08-27T12:28:53.557Z,105.20
2018-08-27T12:29:20.407Z,129.90
2018-08-27T12:30:20.427Z,129.90
2018-08-27T12:31:20.456Z,129.30
2018-08-27T12:32:53.742Z,120.00
2018-08-27T12:35:04.327Z,146.00
2018-08-27T12:36:04.385Z,145.30
2018-08-27T12:37:37.638Z,134.90
2018-08-27T12:38:04.468Z,133.70
2018-08-27T12:39:04.531Z,140.30
2018-08-27T12:40:04.571Z,148.40
2018-08-27T12:41:04.754Z,148.00
2018-08-27T12:42:37.920Z,165.90
2018-08-27T12:43:37.945Z,152.20
2018-08-27T12:44:04.749Z,137.70
2018-08-27T12:45:04.777Z,153.20
2018-08-27T12:46:04.805Z,153.00
2018-08-27T12:47:38.098Z,145.10
2018-08-27T12:49:48.678Z,62.10
2018-08-27T12:51:22.057Z,60.80
2018-08-27T12:53:32.547Z,54.10
2018-08-27T12:55:05.816Z,62.80
2018-08-27T12:57:16.408Z,164.50
2018-08-27T12:58:49.702Z,79.50
2018-08-27T13:01:00.274Z,70.90
2018-08-27T13:02:33.545Z,71.70
2018-08-27T13:04:44.142Z,82.00
2018-08-27T13:06:17.412Z,402.00
2018-08-27T13:08:28.005Z,105.30
2018-08-27T13:10:01.277Z,104.30
2018-08-27T13:12:11.870Z,80.90
2018-08-27T13:13:45.142Z,111.70
2018-08-27T13:15:55.769Z,67.80
2018-08-27T13:17:29.010Z,75.50
2018-08-27T13:19:39.605Z,55.70
2018-08-27T13:21:12.876Z,58.00
2018-08-27T13:23:23.469Z,64.00
2018-08-27T13:24:56.741Z,56.70
2018-08-27T13:27:07.336Z,79.70
2018-08-27T13:28:40.608Z,83.40
2018-08-27T13:30:51.201Z,61.70
2018-08-27T13:32:24.473Z,62.80
2018-08-27T13:34:35.067Z,54.90
2018-08-27T13:36:08.339Z,50.80
2018-08-27T13:38:19.184Z,44.40
2018-08-27T13:39:52.308Z,41.70
2018-08-27T13:42:02.803Z,33.10
2018-08-27T13:43:36.077Z,29.70
2018-08-27T13:45:46.674Z,26.80
2018-08-27T13:47:19.998Z,35.50
2018-08-27T13:49:30.544Z,29.60
2018-08-27T13:51:03.817Z,31.10
2018-08-27T13:53:14.415Z,24.70
2018-08-27T13:54:47.690Z,24.10
2018-08-27T13:56:58.286Z,25.00
2018-08-27T13:58:31.560Z,25.10
2018-08-27T14:00:42.157Z,25.30
2018-08-27T14:02:15.434Z,24.60
2018-08-27T14:04:26.029Z,66.70
2018-08-27T14:05:59.307Z,32.80
2018-08-27T14:08:09.902Z,22.30
2018-08-27T14:09:43.478Z,22.00
2018-08-27T14:11:53.774Z,26.90
2018-08-27T14:13:27.049Z,28.20
2018-08-27T14:15:37.805Z,29.40
2018-08-27T14:17:10.921Z,34.00
2018-08-27T14:19:21.641Z,53.90
2018-08-27T14:20:54.792Z,34.60
2018-08-27T14:23:05.390Z,42.20
2018-08-27T14:24:38.663Z,44.60
2018-08-27T14:26:49.259Z,44.50
2018-08-27T14:28:22.834Z,54.80
2018-08-27T14:30:33.130Z,58.30
2018-08-27T14:32:06.406Z,61.60
2018-08-27T14:34:16.999Z,55.60
2018-08-27T14:35:50.301Z,63.60
2018-08-27T14:38:00.872Z,55.80
2018-08-27T14:39:34.144Z,68.00
2018-08-27T14:41:44.741Z,51.00
2018-08-27T14:43:18.014Z,52.10
2018-08-27T14:45:28.608Z,38.40
2018-08-27T14:47:01.886Z,37.70
2018-08-27T14:49:12.479Z,47.30
2018-08-27T14:50:45.753Z,39.60
2018-08-27T14:52:56.349Z,37.50
2018-08-27T14:54:29.624Z,38.20
2018-08-27T14:56:40.221Z,44.70
2018-08-27T14:58:13.495Z,44.90
2018-08-27T15:00:24.092Z,62.70
2018-08-27T15:01:57.366Z,41.50
2018-08-27T15:04:07.963Z,48.00
2018-08-27T15:05:41.239Z,45.30
2018-08-27T15:07:51.834Z,52.40
2018-08-27T15:09:25.179Z,52.00
2018-08-27T15:11:35.704Z,55.70
2018-08-27T15:13:09.521Z,55.40
2018-08-27T15:15:20.116Z,54.40
2018-08-27T15:16:52.886Z,61.90
2018-08-27T15:19:03.441Z,58.70
2018-08-27T15:20:36.715Z,59.50
2018-08-27T15:22:47.310Z,52.70
2018-08-27T15:24:20.833Z,55.30
2018-08-27T15:26:31.179Z,72.00
2018-08-27T15:28:04.452Z,55.20
2018-08-27T15:30:15.059Z,55.60
2018-08-27T15:31:48.869Z,54.40
2018-08-27T15:33:58.923Z,41.90
2018-08-27T15:35:32.195Z,46.50
2018-08-27T15:37:43.332Z,36.20
2018-08-27T15:39:16.068Z,53.20
2018-08-27T15:41:27.308Z,38.30
2018-08-27T15:43:00.592Z,40.30
2018-08-27T15:45:10.536Z,48.00
2018-08-27T15:46:44.358Z,45.90
2018-08-27T15:48:54.949Z,54.00
2018-08-27T15:50:27.690Z,56.10
2018-08-27T15:52:38.281Z,54.20
2018-08-27T15:54:11.558Z,50.70
2018-08-27T15:56:22.813Z,49.30
2018-08-27T15:57:55.424Z,48.80
2018-08-27T16:00:06.023Z,46.80
2018-08-27T16:01:39.840Z,52.60
2018-08-27T16:03:50.098Z,54.90
2018-08-27T16:05:23.781Z,66.80
2018-08-27T16:07:33.764Z,52.20
2018-08-27T16:09:07.038Z,47.60
2018-08-27T16:11:18.173Z,43.30
2018-08-27T16:12:52.059Z,44.80
2018-08-27T16:14:17.209Z,48.20
2018-08-27T16:16:01.801Z,44.10
2018-08-27T16:17:35.073Z,47.00
2018-08-27T16:19:46.214Z,58.60
2018-08-27T16:21:19.491Z,45.80
2018-08-27T16:23:30.764Z,50.00
2018-08-27T16:25:03.564Z,45.60
2018-08-27T16:27:13.954Z,53.90
2018-08-27T16:28:47.227Z,45.30
2018-08-27T16:30:58.125Z,44.10
2018-08-27T16:32:31.491Z,43.00
2018-08-27T16:34:41.454Z,45.10
2018-08-27T16:36:15.179Z,50.60
2018-08-27T16:38:25.323Z,48.80
2018-08-27T16:39:59.177Z,50.90
2018-08-27T16:42:09.939Z,50.10
2018-08-27T16:49:45.502Z,49.70
2018-08-27T16:51:55.458Z,60.60
2018-08-27T16:53:27.829Z,44.40
2018-08-27T16:55:38.111Z,58.00
2018-08-27T16:57:11.293Z,48.00
2018-08-27T16:59:21.889Z,50.60
2018-08-27T17:00:55.173Z,40.30
2018-08-27T17:03:06.057Z,38.00
2018-08-27T17:04:39.244Z,41.20
2018-08-27T17:08:23.417Z,46.60
2018-08-27T17:10:34.110Z,41.60
2018-08-27T17:12:06.784Z,41.00
2018-08-27T17:14:19.180Z,40.10
2018-08-27T17:15:50.652Z,41.70
2018-08-27T17:18:01.247Z,44.90
2018-08-27T17:19:01.327Z,43.40
2018-08-27T17:20:01.570Z,43.70
2018-08-27T17:21:01.298Z,44.20
2018-08-27T17:22:01.461Z,44.50
2018-08-27T17:23:01.527Z,49.90
2018-08-27T17:24:01.565Z,47.20
2018-08-27T17:26:01.628Z,43.60
2018-08-27T17:27:01.764Z,45.50
2018-08-27T17:28:02.139Z,45.10
2018-08-27T17:29:01.877Z,40.80
2018-08-27T17:30:02.040Z,40.60
2018-08-27T17:31:01.320Z,41.90
2018-08-27T17:32:01.888Z,49.70
2018-08-27T17:33:02.082Z,42.10
2018-08-27T17:34:01.925Z,41.50
2018-08-27T17:35:02.048Z,40.60
2018-08-27T17:36:02.161Z,40.90
2018-08-27T17:37:02.564Z,77.90
2018-08-27T17:38:02.199Z,41.20
2018-08-27T17:39:02.130Z,73.50
2018-08-27T17:40:02.055Z,40.80
2018-08-27T17:41:02.315Z,39.50
2018-08-27T17:42:02.443Z,40.20
2018-08-27T17:43:02.630Z,38.20
2018-08-27T17:44:02.697Z,46.40
2018-08-27T17:45:02.579Z,44.90
2018-08-27T17:46:02.715Z,44.80
2018-08-27T17:47:02.584Z,42.80
2018-08-27T17:48:02.648Z,44.20
2018-08-27T17:49:03.311Z,50.80
2018-08-27T17:50:02.455Z,52.20
2018-08-27T17:51:02.699Z,48.30
2018-08-27T17:52:03.262Z,57.70
2018-08-27T17:53:02.930Z,47.30
2018-08-27T17:54:02.827Z,49.00
2018-08-27T17:55:02.936Z,46.00
2018-08-27T17:56:02.992Z,46.40
2018-08-27T17:57:03.768Z,70.90
2018-08-27T17:58:03.183Z,84.30
2018-08-27T18:00:03.629Z,58.50
2018-08-27T18:01:03.210Z,79.40
2018-08-27T18:02:02.744Z,70.50
2018-08-27T18:03:02.794Z,64.40
2018-08-27T18:04:03.077Z,60.20
2018-08-27T18:05:03.014Z,58.80
2018-08-27T18:06:02.936Z,68.40
2018-08-27T18:07:02.952Z,68.30
2018-08-27T18:08:03.024Z,70.80
2018-08-27T18:09:03.032Z,76.60
2018-08-27T18:10:04.288Z,79.30
2018-08-27T18:11:03.890Z,88.90
2018-08-27T18:12:04.222Z,142.60
2018-08-27T18:13:03.761Z,109.00
2018-08-27T18:14:03.904Z,94.70
2018-08-27T18:15:04.267Z,120.90
2018-08-27T18:17:03.944Z,307.50
2018-08-27T18:18:03.993Z,120.60
2018-08-27T18:19:04.074Z,195.40
2018-08-27T18:20:04.154Z,159.90
2018-08-27T18:21:04.173Z,198.40
2018-08-27T18:22:04.059Z,193.80
2018-08-27T18:23:04.155Z,654.30
2018-08-27T18:24:03.731Z,341.50
2018-08-27T18:25:03.810Z,285.40
2018-08-27T18:26:03.801Z,248.10
2018-08-27T18:27:03.869Z,252.20
2018-08-27T18:28:03.905Z,241.70
2018-08-27T18:29:03.926Z,257.70
2018-08-27T18:30:04.018Z,237.90
2018-08-27T18:31:04.043Z,261.90
2018-08-27T18:32:04.057Z,236.80
2018-08-27T18:33:04.110Z,243.80
2018-08-27T18:34:04.196Z,238.30
2018-08-27T18:35:04.188Z,237.20
2018-08-27T18:36:04.260Z,201.80
2018-08-27T18:37:04.297Z,195.00
2018-08-27T18:38:04.348Z,202.50
2018-08-27T18:39:04.380Z,169.90
2018-08-27T18:40:04.455Z,249.20
2018-08-27T18:41:04.705Z,258.70
2018-08-27T18:42:04.512Z,198.60
2018-08-27T18:43:04.528Z,201.90
2018-08-27T18:44:04.630Z,448.30
2018-08-27T18:45:04.651Z,214.20
2018-08-27T18:46:04.667Z,194.40
2018-08-27T18:47:04.714Z,227.70
2018-08-27T18:48:05.092Z,214.20
2018-08-27T18:49:04.815Z,192.00
2018-08-27T18:50:04.872Z,238.20
2018-08-27T18:51:04.892Z,381.10
2018-08-27T18:52:04.934Z,272.70
2018-08-27T18:53:05.030Z,352.70
2018-08-27T18:54:05.048Z,230.40
2018-08-27T18:55:05.063Z,384.30
2018-08-27T18:56:05.125Z,323.10
2018-08-27T18:57:05.174Z,380.40
2018-08-27T18:58:05.219Z,336.80
2018-08-27T18:59:05.291Z,561.00
2018-08-27T19:00:05.301Z,334.60
2018-08-27T19:01:05.380Z,338.70
2018-08-27T19:02:05.431Z,388.90
2018-08-27T19:03:05.448Z,343.70
2018-08-27T19:04:05.477Z,331.40
2018-08-27T19:05:05.497Z,484.40
2018-08-27T19:06:05.589Z,797.00
2018-08-27T19:07:05.607Z,446.10
2018-08-27T19:08:05.621Z,378.30
2018-08-27T19:09:05.684Z,684.10
2018-08-27T19:10:05.717Z,431.20
2018-08-27T19:11:05.768Z,398.10
2018-08-27T19:12:05.822Z,429.10
2018-08-27T19:13:05.845Z,471.60
2018-08-27T19:14:05.887Z,420.60
2018-08-27T19:15:05.945Z,413.90